Time;durP1;ratioP1;P1;durP2;ratioP2;P2;SDS_P1;SDS_P2;PMS_P1;PMS_P2;Temp;Humidity;BMP_temperature;BMP_pressure;BME280_temperature;BME280_humidity;BME280_pressure;Samples;Min_cycle;Max_cycle;Signal;HPM_P1;HPM_P2
2023/03/30 00:00:17;;;;;;;11.63;6.55;;;12.20;99.90;;;;;;4972825;28;20057;-57
2023/03/30 00:02:49;;;;;;;11.38;6.53;;;12.10;99.90;;;;;;4974697;28;20435;-57
2023/03/30 00:05:16;;;;;;;11.23;6.70;;;12.20;99.90;;;;;;4980175;28;20059;-58
2023/03/30 00:07:43;;;;;;;11.43;6.95;;;12.10;99.90;;;;;;4978593;28;20092;-57
2023/03/30 00:10:17;;;;;;;9.50;5.85;;;12.10;99.90;;;;;;4979022;28;20039;-57
2023/03/30 00:12:45;;;;;;;;;;;12.20;99.90;;;;;;4974633;28;20035;-57
2023/03/30 00:15:14;;;;;;;10.88;6.10;;;12.10;99.90;;;;;;4970943;28;19972;-57
2023/03/30 00:17:40;;;;;;;11.10;6.38;;;12.10;99.90;;;;;;4954969;28;20532;-57
2023/03/30 00:20:10;;;;;;;10.15;6.82;;;12.10;99.90;;;;;;4978233;28;20070;-57
2023/03/30 00:22:46;;;;;;;9.82;6.15;;;12.10;99.90;;;;;;4989742;28;20121;-57
2023/03/30 00:25:15;;;;;;;8.77;6.10;;;12.00;99.90;;;;;;4976589;28;20089;-57
2023/03/30 00:27:41;;;;;;;12.50;6.10;;;11.90;99.90;;;;;;4971410;28;20125;-57
2023/03/30 00:30:10;;;;;;;12.23;5.97;;;12.00;99.90;;;;;;4971797;28;20106;-57
2023/03/30 00:32:36;;;;;;;10.15;5.28;;;12.00;99.90;;;;;;4971189;28;20085;-57
2023/03/30 00:35:04;;;;;;;12.68;5.93;;;12.10;99.90;;;;;;4979956;28;20038;-57
2023/03/30 00:37:29;;;;;;;14.70;6.03;;;12.10;99.90;;;;;;4971967;28;20074;-57
2023/03/30 00:39:55;;;;;;;11.73;5.35;;;12.10;99.90;;;;;;4980728;28;20074;-57
2023/03/30 00:42:21;;;;;;;11.40;5.82;;;12.10;99.90;;;;;;4971717;28;20041;-57
2023/03/30 00:45:11;;;;;;;10.77;5.85;;;12.10;99.90;;;;;;4981741;28;20042;-57
2023/03/30 00:48:05;;;;;;;9.02;5.38;;;12.20;99.90;;;;;;4971050;28;20490;-57
2023/03/30 00:50:43;;;;;;;11.10;5.32;;;12.20;99.90;;;;;;4973145;28;20092;-57
2023/03/30 00:53:23;;;;;;;10.95;5.78;;;12.20;99.90;;;;;;4972870;28;20047;-60
2023/03/30 00:55:51;;;;;;;10.05;5.65;;;12.10;99.90;;;;;;4960667;28;20493;-59
2023/03/30 00:58:18;;;;;;;10.20;5.72;;;12.10;99.90;;;;;;4973149;28;20410;-59
2023/03/30 01:00:46;;;;;;;11.43;4.80;;;12.10;99.90;;;;;;4972595;28;20039;-59
2023/03/30 01:03:33;;;;;;;9.98;5.65;;;12.00;99.90;;;;;;4977602;28;20500;-59
2023/03/30 01:06:03;;;;;;;9.43;5.13;;;12.00;99.90;;;;;;4974642;28;20057;-59
2023/03/30 01:08:33;;;;;;;11.00;4.90;;;12.10;99.90;;;;;;4984130;28;20664;-57
2023/03/30 01:11:00;;;;;;;9.07;5.03;;;12.10;99.90;;;;;;4973527;28;20096;-57
2023/03/30 01:13:31;;;;;;;9.93;5.22;;;12.20;99.90;;;;;;4960830;28;20170;-57
2023/03/30 01:16:24;;;;;;;10.77;5.00;;;12.30;99.90;;;;;;4955163;28;20058;-57
2023/03/30 01:18:58;;;;;;;13.30;5.15;;;12.20;99.90;;;;;;4973962;28;20046;-57
2023/03/30 01:21:26;;;;;;;;;;;12.20;99.90;;;;;;4981586;28;20070;-57
2023/03/30 01:24:11;;;;;;;11.18;4.90;;;12.30;99.90;;;;;;4956102;28;19925;-57
2023/03/30 01:26:52;;;;;;;10.32;4.90;;;12.20;99.90;;;;;;4977390;28;20138;-57
2023/03/30 01:29:46;;;;;;;8.55;4.53;;;12.20;99.90;;;;;;4982622;28;20446;-57
2023/03/30 01:32:48;;;;;;;10.98;5.53;;;12.20;99.90;;;;;;4953699;28;20550;-57
2023/03/30 01:35:33;;;;;;;12.02;5.05;;;12.20;99.90;;;;;;4981191;28;20096;-57
2023/03/30 01:38:20;;;;;;;8.65;4.60;;;12.20;99.90;;;;;;4976779;28;20039;-57
2023/03/30 01:41:13;;;;;;;12.93;5.00;;;12.20;99.90;;;;;;4981463;28;20363;-57
2023/03/30 01:43:58;;;;;;;12.55;5.00;;;12.20;99.90;;;;;;4982208;28;20039;-57
2023/03/30 01:46:39;;;;;;;11.55;5.30;;;12.30;99.90;;;;;;4968470;28;20122;-57
2023/03/30 01:49:28;;;;;;;9.27;4.72;;;12.20;99.90;;;;;;4979734;28;20079;-57
2023/03/30 01:52:37;;;;;;;9.77;4.90;;;12.20;99.90;;;;;;4973688;28;20098;-57
2023/03/30 01:55:15;;;;;;;7.60;4.53;;;12.10;99.90;;;;;;4981636;28;20039;-58
2023/03/30 01:57:44;;;;;;;11.18;4.93;;;12.20;99.90;;;;;;4975448;28;20042;-57
2023/03/30 02:00:13;;;;;;;9.60;4.85;;;12.20;99.90;;;;;;4973691;28;20398;-57
2023/03/30 02:02:54;;;;;;;8.32;4.40;;;12.20;99.90;;;;;;4992209;28;20046;-57
2023/03/30 02:05:23;;;;;;;7.88;4.63;;;12.20;99.90;;;;;;4988838;28;20038;-57
2023/03/30 02:07:53;;;;;;;11.05;4.45;;;12.20;99.90;;;;;;4989498;28;20109;-57
2023/03/30 02:10:23;;;;;;;9.68;4.25;;;12.30;99.90;;;;;;4975376;28;20505;-57
2023/03/30 02:12:50;;;;;;;9.82;4.70;;;12.30;99.90;;;;;;4974393;28;20154;-58
2023/03/30 02:15:17;;;;;;;7.65;3.63;;;12.20;99.90;;;;;;4958144;28;20097;-57
2023/03/30 02:17:46;;;;;;;10.30;4.10;;;12.30;99.90;;;;;;4993601;28;20077;-58
2023/03/30 02:20:15;;;;;;;10.70;4.00;;;12.30;99.90;;;;;;4989911;28;20043;-58
2023/03/30 02:22:41;;;;;;;6.50;3.53;;;12.30;99.90;;;;;;4980014;28;20039;-58
2023/03/30 02:25:08;;;;;;;9.95;4.40;;;12.30;99.90;;;;;;4985766;28;20049;-58
2023/03/30 02:27:35;;;;;;;9.43;4.25;;;12.30;99.90;;;;;;4981799;28;20050;-58
2023/03/30 02:30:01;;;;;;;8.30;4.30;;;12.30;99.90;;;;;;4993058;28;20430;-58
2023/03/30 02:32:32;;;;;;;8.70;4.10;;;12.30;99.90;;;;;;4992989;28;20124;-58
2023/03/30 02:35:08;;;;;;;10.15;4.13;;;12.20;99.90;;;;;;4978276;28;20037;-57
2023/03/30 02:38:02;;;;;;;9.05;4.35;;;12.20;99.90;;;;;;4982522;28;20402;-58
2023/03/30 02:40:46;;;;;;;10.65;4.28;;;12.10;99.90;;;;;;4984416;28;20042;-58
2023/03/30 02:43:15;;;;;;;;;;;12.00;99.90;;;;;;4977731;28;20042;-58
2023/03/30 02:46:10;;;;;;;9.80;4.00;;;12.00;99.90;;;;;;4974207;28;19918;-58
2023/03/30 02:48:45;;;;;;;10.82;3.95;;;12.00;99.90;;;;;;4973820;28;20054;-58
2023/03/30 02:51:25;;;;;;;7.25;3.30;;;12.00;99.90;;;;;;4988301;28;20506;-58
2023/03/30 02:53:57;;;;;;;8.77;3.38;;;12.00;99.90;;;;;;4982126;28;20090;-57
2023/03/30 02:56:36;;;;;;;8.40;4.22;;;12.00;99.90;;;;;;4975658;28;20047;-58
2023/03/30 02:59:16;;;;;;;9.25;3.58;;;12.00;99.90;;;;;;4962023;28;20478;-57
2023/03/30 03:01:49;;;;;;;8.25;3.42;;;11.90;99.90;;;;;;4991591;28;20104;-58
2023/03/30 03:04:18;;;;;;;10.18;3.90;;;11.90;99.90;;;;;;4988688;28;20458;-58
2023/03/30 03:06:45;;;;;;;8.00;3.80;;;11.90;99.90;;;;;;4984165;28;20050;-58
2023/03/30 03:09:11;;;;;;;8.00;3.58;;;11.90;99.90;;;;;;4977176;28;20101;-57
2023/03/30 03:11:36;;;;;;;10.65;3.40;;;11.80;99.90;;;;;;4981629;28;20086;-58
2023/03/30 03:14:02;;;;;;;12.70;3.67;;;11.90;99.90;;;;;;4973574;28;20086;-58
2023/03/30 03:16:28;;;;;;;7.00;3.42;;;11.80;99.90;;;;;;4992471;28;20061;-58
2023/03/30 03:18:54;;;;;;;6.63;3.75;;;11.90;99.90;;;;;;4988369;28;20537;-57
2023/03/30 03:21:19;;;;;;;8.95;3.80;;;11.90;99.90;;;;;;4983958;28;20035;-58
2023/03/30 03:23:47;;;;;;;7.45;3.53;;;11.90;99.90;;;;;;4961050;28;20043;-57
2023/03/30 03:26:12;;;;;;;9.25;3.45;;;11.90;99.90;;;;;;4984304;28;20093;-58
2023/03/30 03:28:38;;;;;;;8.50;3.60;;;11.90;99.90;;;;;;4980006;28;20039;-57
2023/03/30 03:31:04;;;;;;;8.15;3.30;;;12.00;99.90;;;;;;4973481;28;20050;-58
2023/03/30 03:33:30;;;;;;;8.75;3.30;;;12.00;99.90;;;;;;4972757;28;20057;-57
2023/03/30 03:35:58;;;;;;;7.65;2.85;;;12.10;99.90;;;;;;4984842;28;20454;-58
2023/03/30 03:38:26;;;;;;;11.85;3.60;;;12.10;99.90;;;;;;4979374;28;20273;-58
2023/03/30 03:40:54;;;;;;;8.20;3.60;;;12.10;99.90;;;;;;4973697;28;20046;-58
2023/03/30 03:43:20;;;;;;;11.35;3.00;;;12.10;99.90;;;;;;4955851;28;20129;-57
2023/03/30 03:45:46;;;;;;;8.40;3.45;;;12.20;99.90;;;;;;4983205;28;20118;-57
2023/03/30 03:48:16;;;;;;;10.88;3.17;;;12.10;99.90;;;;;;4973426;28;20034;-58
2023/03/30 03:50:42;;;;;;;8.95;3.22;;;12.20;99.90;;;;;;4981925;28;20113;-57
2023/03/30 03:53:09;;;;;;;5.40;2.95;;;12.20;99.90;;;;;;4973497;28;20188;-58
2023/03/30 03:55:35;;;;;;;11.13;3.17;;;12.20;99.90;;;;;;4973616;28;20057;-58
2023/03/30 03:58:02;;;;;;;5.60;2.90;;;12.10;99.90;;;;;;4981698;28;20038;-57
2023/03/30 04:00:28;;;;;;;8.38;2.97;;;12.20;99.90;;;;;;4978743;28;20039;-58
2023/03/30 04:02:54;;;;;;;9.10;3.70;;;12.20;99.90;;;;;;4974444;28;20092;-58
2023/03/30 04:05:20;;;;;;;10.05;3.97;;;12.20;99.90;;;;;;4977622;28;20038;-57
2023/03/30 04:07:46;;;;;;;9.10;3.47;;;12.10;99.90;;;;;;4978351;28;20061;-58
2023/03/30 04:10:13;;;;;;;9.05;3.42;;;12.10;99.90;;;;;;4991846;28;20046;-57
2023/03/30 04:12:39;;;;;;;9.35;3.60;;;12.00;99.90;;;;;;4981402;28;20485;-56
2023/03/30 04:15:06;;;;;;;11.88;3.83;;;11.90;99.90;;;;;;4986160;28;20043;-57
2023/03/30 04:17:36;;;;;;;10.95;3.50;;;11.80;99.90;;;;;;4974197;28;20039;-57
2023/03/30 04:20:11;;;;;;;11.77;4.00;;;11.90;99.90;;;;;;4956031;28;20034;-58
2023/03/30 04:22:42;;;;;;;8.55;3.65;;;11.80;99.90;;;;;;4988457;28;20065;-57
2023/03/30 04:25:10;;;;;;;9.93;3.65;;;11.80;99.90;;;;;;4974900;28;20042;-57
2023/03/30 04:27:36;;;;;;;9.60;4.35;;;11.80;99.90;;;;;;4981347;28;20121;-57
2023/03/30 04:30:06;;;;;;;10.25;4.00;;;11.70;99.90;;;;;;4966577;28;20397;-58
2023/03/30 04:32:37;;;;;;;11.27;3.63;;;11.80;99.90;;;;;;4977922;28;20049;-57
2023/03/30 04:35:07;;;;;;;11.15;4.13;;;11.80;99.90;;;;;;4972482;28;20057;-58
2023/03/30 04:37:34;;;;;;;9.40;3.72;;;11.80;99.90;;;;;;4975356;28;20097;-58
2023/03/30 04:40:01;;;;;;;6.15;2.90;;;11.80;99.90;;;;;;4974866;28;20038;-58
2023/03/30 04:42:29;;;;;;;7.55;3.55;;;11.90;99.90;;;;;;4976149;28;20042;-58
2023/03/30 04:45:02;;;;;;;6.15;3.25;;;11.90;99.90;;;;;;4975570;28;20056;-57
2023/03/30 04:47:28;;;;;;;8.18;3.33;;;11.90;99.90;;;;;;4973061;28;20100;-58
2023/03/30 04:49:53;;;;;;;10.18;3.85;;;11.90;99.90;;;;;;4980184;28;20086;-58
2023/03/30 04:52:19;;;;;;;9.95;3.22;;;11.90;99.90;;;;;;4974497;28;20050;-57
2023/03/30 04:54:45;;;;;;;9.23;2.88;;;12.00;99.90;;;;;;4972333;28;20430;-58
2023/03/30 04:57:15;;;;;;;7.97;3.33;;;11.90;99.90;;;;;;4980827;28;20035;-58
2023/03/30 04:59:42;;;;;;;8.23;3.28;;;11.90;99.90;;;;;;4979589;28;20039;-58
2023/03/30 05:02:08;;;;;;;10.63;3.90;;;12.00;99.90;;;;;;4972717;28;20053;-58
2023/03/30 05:04:34;;;;;;;11.20;3.28;;;12.00;99.90;;;;;;4971341;28;20512;-58
2023/03/30 05:07:01;;;;;;;8.40;3.78;;;12.00;99.90;;;;;;4975714;28;20035;-57
2023/03/30 05:09:27;;;;;;;9.38;3.40;;;12.00;99.90;;;;;;4982505;28;20039;-57
2023/03/30 05:11:53;;;;;;;9.40;3.20;;;12.00;99.90;;;;;;4974650;28;20041;-57
2023/03/30 05:14:19;;;;;;;7.93;3.30;;;12.00;99.90;;;;;;4963101;28;20047;-57
2023/03/30 05:16:44;;;;;;;10.02;3.13;;;11.90;99.90;;;;;;4959474;28;20074;-57
2023/03/30 05:19:10;;;;;;;8.98;3.20;;;12.00;99.90;;;;;;4972724;28;20062;-58
2023/03/30 05:21:36;;;;;;;11.05;3.83;;;12.10;99.90;;;;;;4973069;28;20061;-57
2023/03/30 05:24:03;;;;;;;9.25;2.65;;;12.00;99.90;;;;;;4980789;28;20413;-58
2023/03/30 05:26:29;;;;;;;12.10;3.05;;;12.00;99.90;;;;;;4956724;28;20092;-58
2023/03/30 05:28:55;;;;;;;8.77;2.80;;;12.00;99.90;;;;;;4971992;28;20144;-57
2023/03/30 05:31:21;;;;;;;6.35;2.75;;;12.00;99.90;;;;;;4968701;28;20173;-58
2023/03/30 05:33:47;;;;;;;8.18;3.03;;;12.00;99.90;;;;;;4980904;28;20525;-57
2023/03/30 05:36:13;;;;;;;9.60;2.58;;;11.90;99.90;;;;;;4978586;28;20406;-58
2023/03/30 05:38:38;;;;;;;11.00;2.95;;;12.00;99.90;;;;;;4985136;28;20039;-58
2023/03/30 05:41:05;;;;;;;9.55;3.17;;;12.00;99.90;;;;;;4978302;28;20049;-58
2023/03/30 05:43:32;;;;;;;9.55;3.28;;;12.00;99.90;;;;;;4974940;28;20035;-58
2023/03/30 05:45:59;;;;;;;10.13;3.20;;;12.00;99.90;;;;;;4958643;28;20510;-58
2023/03/30 05:48:25;;;;;;;9.43;3.85;;;12.10;99.90;;;;;;4987218;28;20042;-58
2023/03/30 05:50:50;;;;;;;7.75;3.50;;;12.10;99.90;;;;;;4959382;28;20053;-59
2023/03/30 05:53:16;;;;;;;11.10;3.40;;;12.20;99.90;;;;;;4981257;28;20445;-58
2023/03/30 05:55:44;;;;;;;10.65;3.85;;;12.20;99.90;;;;;;4979534;28;20039;-57
2023/03/30 05:58:10;;;;;;;7.07;3.63;;;12.30;99.90;;;;;;4982671;28;20077;-58
2023/03/30 06:00:36;;;;;;;9.52;3.55;;;12.30;99.90;;;;;;4964074;28;20074;-57
2023/03/30 06:03:03;;;;;;;11.60;3.80;;;12.20;99.90;;;;;;4981979;28;20086;-57
2023/03/30 06:05:32;;;;;;;8.35;3.38;;;12.10;99.90;;;;;;4976220;28;20494;-57
2023/03/30 06:07:59;;;;;;;13.10;3.70;;;12.30;99.90;;;;;;4981926;28;20583;-57
2023/03/30 06:10:25;;;;;;;13.90;3.33;;;12.20;99.90;;;;;;4977137;28;20049;-57
2023/03/30 06:12:51;;;;;;;12.10;2.78;;;12.30;99.90;;;;;;4976913;28;20045;-58
2023/03/30 06:15:17;;;;;;;12.95;3.42;;;12.30;99.90;;;;;;4976198;28;20042;-58
2023/03/30 06:17:43;;;;;;;11.85;2.70;;;12.30;99.90;;;;;;4981043;28;20042;-58
2023/03/30 06:20:11;;;;;;;10.75;3.33;;;12.20;99.90;;;;;;4975676;28;20054;-57
2023/03/30 06:22:38;;;;;;;11.27;2.88;;;12.20;99.90;;;;;;4974311;28;20141;-57
2023/03/30 06:25:04;;;;;;;11.45;2.75;;;12.30;99.90;;;;;;4984983;28;20054;-58
2023/03/30 06:27:31;;;;;;;9.85;2.15;;;12.30;99.90;;;;;;4977807;28;20042;-58
2023/03/30 06:29:57;;;;;;;13.73;2.97;;;12.30;99.90;;;;;;4976485;28;20038;-57
2023/03/30 06:32:23;;;;;;;15.38;3.35;;;12.30;99.90;;;;;;4982308;28;20050;-57
2023/03/30 06:34:49;;;;;;;12.05;3.17;;;12.30;99.90;;;;;;4987173;28;20070;-58
2023/03/30 06:37:15;;;;;;;11.57;2.63;;;12.40;99.90;;;;;;4973827;28;20493;-58
2023/03/30 06:39:40;;;;;;;8.95;2.30;;;12.40;99.90;;;;;;4980443;28;20072;-58
2023/03/30 06:42:06;;;;;;;10.68;2.28;;;12.30;99.90;;;;;;4987528;28;20046;-58
2023/03/30 06:44:33;;;;;;;12.52;2.67;;;12.30;99.90;;;;;;4978558;28;20035;-57
2023/03/30 06:47:00;;;;;;;14.13;3.15;;;12.40;99.90;;;;;;4963802;28;20054;-58
2023/03/30 06:49:25;;;;;;;16.98;3.08;;;12.40;99.90;;;;;;4975982;28;20046;-58
2023/03/30 06:51:51;;;;;;;15.93;3.05;;;12.50;99.90;;;;;;4978694;28;20084;-58
2023/03/30 06:54:19;;;;;;;14.80;3.38;;;12.50;99.90;;;;;;4975697;28;20035;-58
2023/03/30 06:56:46;;;;;;;14.88;2.88;;;12.50;99.90;;;;;;4981796;28;20486;-58
2023/03/30 06:59:12;;;;;;;10.68;3.35;;;12.50;99.90;;;;;;4974221;28;20092;-57
2023/03/30 07:01:38;;;;;;;14.27;3.58;;;12.50;99.90;;;;;;4973615;28;20047;-58
2023/03/30 07:04:04;;;;;;;17.85;3.75;;;12.50;99.90;;;;;;4974114;28;20043;-57
2023/03/30 07:06:30;;;;;;;17.80;3.60;;;12.50;99.90;;;;;;4978517;28;20042;-58
2023/03/30 07:08:56;;;;;;;14.70;4.00;;;12.50;99.90;;;;;;4980078;28;20058;-57
2023/03/30 07:11:22;;;;;;;17.70;4.25;;;12.70;99.90;;;;;;4980576;28;20413;-57
2023/03/30 07:13:47;;;;;;;18.23;3.78;;;12.60;99.90;;;;;;4987750;28;20433;-57
2023/03/30 07:16:13;;;;;;;20.83;4.35;;;12.60;99.90;;;;;;4992645;28;20038;-58
2023/03/30 07:18:39;;;;;;;14.95;3.22;;;12.60;99.90;;;;;;4984470;28;20481;-57
2023/03/30 07:21:05;;;;;;;17.67;3.92;;;12.60;99.90;;;;;;4982273;28;20098;-58
2023/03/30 07:23:31;;;;;;;19.33;3.92;;;12.60;99.90;;;;;;4986274;28;20030;-58
2023/03/30 07:25:56;;;;;;;18.65;4.10;;;12.60;99.90;;;;;;4974354;28;20043;-58
2023/03/30 07:28:23;;;;;;;18.30;3.80;;;12.50;99.90;;;;;;4964381;28;20038;-57
2023/03/30 07:30:48;;;;;;;18.30;3.35;;;12.40;99.90;;;;;;4983592;28;20093;-57
2023/03/30 07:33:14;;;;;;;23.23;4.60;;;12.40;99.90;;;;;;4985742;28;20489;-57
2023/03/30 07:35:45;;;;;;;15.15;3.28;;;12.40;99.90;;;;;;4973768;28;20054;-57
2023/03/30 07:38:13;;;;;;;17.80;3.38;;;12.30;99.90;;;;;;4973073;28;20074;-57
2023/03/30 07:40:39;;;;;;;22.02;4.53;;;12.30;99.90;;;;;;4973228;28;20454;-57
2023/03/30 07:43:06;;;;;;;19.65;3.53;;;12.30;99.90;;;;;;4979114;28;20508;-58
2023/03/30 07:45:32;;;;;;;19.25;3.38;;;12.30;99.90;;;;;;4967789;28;20536;-57
2023/03/30 07:47:58;;;;;;;20.80;3.50;;;12.20;99.90;;;;;;4968925;28;20128;-57
2023/03/30 07:50:24;;;;;;;18.70;4.00;;;12.40;99.90;;;;;;4969645;28;20038;-58
2023/03/30 07:52:51;;;;;;;21.00;3.90;;;12.20;99.90;;;;;;4965940;28;20438;-58
2023/03/30 07:55:17;;;;;;;18.70;3.95;;;12.20;99.90;;;;;;4969854;28;20042;-58
2023/03/30 07:57:43;;;;;;;17.65;3.67;;;12.20;99.90;;;;;;4967680;28;22515;-57
2023/03/30 08:00:09;;;;;;;20.77;4.20;;;12.30;99.90;;;;;;4967575;28;20065;-58
2023/03/30 08:02:36;;;;;;;20.60;4.60;;;12.20;99.90;;;;;;4968659;28;20062;-57
2023/03/30 08:05:02;;;;;;;22.50;5.00;;;12.30;99.90;;;;;;4967811;28;20046;-58
2023/03/30 08:07:29;;;;;;;21.08;4.50;;;12.30;99.90;;;;;;4971929;28;20059;-58
2023/03/30 08:09:54;;;;;;;20.55;4.53;;;12.30;99.90;;;;;;4974485;28;20049;-58
2023/03/30 08:12:21;;;;;;;19.20;4.25;;;12.20;99.90;;;;;;4975913;28;20041;-58
2023/03/30 08:14:46;;;;;;;26.65;4.55;;;12.20;99.90;;;;;;4974463;28;20171;-57
2023/03/30 08:17:12;;;;;;;23.10;4.38;;;12.20;99.90;;;;;;4971653;28;20134;-58
2023/03/30 08:19:38;;;;;;;27.35;5.35;;;12.20;99.90;;;;;;4972618;28;20042;-57
2023/03/30 08:22:04;;;;;;;20.42;4.03;;;12.00;99.90;;;;;;4978876;28;20062;-57
2023/03/30 08:24:29;;;;;;;17.98;3.95;;;12.00;99.90;;;;;;4976636;28;20574;-58
2023/03/30 08:26:55;;;;;;;25.98;4.50;;;12.00;99.90;;;;;;4977185;28;20034;-58
2023/03/30 08:29:21;;;;;;;27.30;5.15;;;12.00;99.90;;;;;;4972673;28;20035;-58
2023/03/30 08:31:46;;;;;;;26.67;4.22;;;12.00;99.90;;;;;;4969807;28;20034;-57
2023/03/30 08:34:12;;;;;;;23.60;4.88;;;12.10;99.90;;;;;;4972031;28;20524;-58
2023/03/30 08:36:38;;;;;;;22.95;3.97;;;12.10;99.90;;;;;;4973006;28;20042;-57
2023/03/30 08:39:04;;;;;;;23.38;4.07;;;12.10;99.90;;;;;;4969825;28;20027;-58
2023/03/30 08:41:58;;;;;;;22.80;4.10;;;12.20;99.90;;;;;;4956559;28;20036;-58
2023/03/30 08:44:36;;;;;;;19.55;3.97;;;12.30;99.90;;;;;;4964778;28;20041;-57
2023/03/30 08:47:05;;;;;;;20.88;4.13;;;12.40;99.90;;;;;;4949033;28;20176;-58
2023/03/30 08:49:38;;;;;;;21.98;4.72;;;12.50;99.90;;;;;;4964449;28;20046;-57
2023/03/30 08:52:05;;;;;;;22.42;4.88;;;12.70;99.90;;;;;;4976613;28;20030;-57
2023/03/30 08:54:31;;;;;;;21.50;3.65;;;12.90;99.90;;;;;;4984702;28;20048;-57
2023/03/30 08:57:16;;;;;;;18.15;4.35;;;13.00;99.90;;;;;;4973597;28;20389;-58
2023/03/30 08:59:41;;;;;;;;;;;13.00;99.90;;;;;;4984388;28;20501;-57
2023/03/30 09:02:14;;;;;;;20.13;3.45;;;13.00;99.90;;;;;;4979886;28;19965;-57
2023/03/30 09:04:45;;;;;;;26.30;4.68;;;13.00;99.90;;;;;;4980015;28;20494;-58
2023/03/30 09:07:23;;;;;;;21.92;3.85;;;12.90;99.90;;;;;;4973985;28;20137;-57
2023/03/30 09:09:53;;;;;;;22.92;4.35;;;13.00;99.90;;;;;;4977799;28;20113;-57
2023/03/30 09:12:32;;;;;;;17.05;3.83;;;13.00;99.90;;;;;;4983684;28;20034;-58
2023/03/30 09:15:07;;;;;;;21.45;4.13;;;13.00;99.90;;;;;;4981176;28;20154;-57
2023/03/30 09:17:43;;;;;;;17.58;3.13;;;13.00;99.90;;;;;;4985074;28;20031;-57
2023/03/30 09:20:22;;;;;;;15.85;3.55;;;13.00;99.90;;;;;;4981713;28;20089;-56
2023/03/30 09:22:49;;;;;;;20.73;4.00;;;13.00;99.90;;;;;;4979830;28;20101;-57
2023/03/30 09:25:33;;;;;;;17.35;3.83;;;13.00;99.90;;;;;;4989437;28;20045;-57
2023/03/30 09:28:20;;;;;;;16.67;2.78;;;13.10;99.90;;;;;;4988821;28;20039;-56
2023/03/30 09:30:52;;;;;;;16.85;3.55;;;13.10;99.90;;;;;;4960017;28;20051;-57
2023/03/30 09:33:32;;;;;;;19.35;4.22;;;13.20;99.90;;;;;;4982462;28;20042;-57
2023/03/30 09:36:22;;;;;;;15.57;3.85;;;13.40;99.90;;;;;;4959446;28;20034;-57
2023/03/30 09:38:49;;;;;;;18.33;3.65;;;13.50;99.90;;;;;;4977980;28;20030;-58
2023/03/30 09:41:46;;;;;;;14.90;3.40;;;13.50;99.90;;;;;;4974966;28;20053;-58
2023/03/30 09:44:36;;;;;;;18.73;3.58;;;13.60;99.90;;;;;;4985835;28;20596;-56
2023/03/30 09:47:31;;;;;;;13.30;3.20;;;13.50;99.90;;;;;;4974991;28;20125;-57
2023/03/30 09:50:06;;;;;;;12.45;3.10;;;13.50;99.90;;;;;;4990303;28;20500;-57
2023/03/30 09:52:39;;;;;;;20.83;3.63;;;13.50;99.90;;;;;;4980555;28;20479;-57
2023/03/30 09:55:20;;;;;;;17.48;3.28;;;13.50;99.90;;;;;;4966440;28;20126;-57
2023/03/30 09:57:47;;;;;;;14.57;3.63;;;13.50;99.90;;;;;;4977226;28;20453;-53
2023/03/30 10:00:24;;;;;;;16.23;3.53;;;13.50;99.90;;;;;;4976205;28;20053;-57
2023/03/30 10:03:01;;;;;;;18.13;3.45;;;13.60;99.90;;;;;;4974667;28;20081;-56
2023/03/30 10:05:28;;;;;;;20.10;3.85;;;13.60;99.90;;;;;;4979170;28;20038;-57
2023/03/30 10:07:57;;;;;;;22.95;3.97;;;13.60;99.90;;;;;;4977692;28;20185;-57
2023/03/30 10:10:25;;;;;;;17.67;4.15;;;13.70;99.90;;;;;;4964591;28;20486;-57
2023/03/30 10:13:01;;;;;;;17.75;3.45;;;13.70;99.90;;;;;;4977195;28;20051;-58
2023/03/30 10:15:30;;;;;;;18.17;3.67;;;13.80;99.90;;;;;;4980150;28;21248;-58
2023/03/30 10:18:01;;;;;;;15.07;3.28;;;13.80;99.90;;;;;;4979602;28;20460;-58
2023/03/30 10:20:35;;;;;;;15.23;3.25;;;13.90;99.90;;;;;;4977035;28;20102;-57
2023/03/30 10:23:23;;;;;;;14.38;3.50;;;14.00;99.90;;;;;;4977380;28;20100;-57
2023/03/30 10:25:50;;;;;;;18.42;3.72;;;14.10;99.90;;;;;;4979098;28;20127;-58
2023/03/30 10:28:20;;;;;;;19.02;3.55;;;14.20;99.90;;;;;;4976959;28;20046;-58
2023/03/30 10:31:06;;;;;;;17.20;3.55;;;14.20;99.90;;;;;;4979355;28;20046;-58
2023/03/30 10:33:39;;;;;;;18.45;3.78;;;14.30;99.90;;;;;;4962002;28;20542;-58
2023/03/30 10:36:06;;;;;;;18.23;3.92;;;14.40;99.90;;;;;;4979692;28;20102;-57
2023/03/30 10:38:33;;;;;;;16.80;3.22;;;14.60;99.90;;;;;;4980942;28;20042;-57
2023/03/30 10:41:15;;;;;;;15.40;3.50;;;14.60;99.90;;;;;;4976617;28;20038;-57
2023/03/30 10:43:42;;;;;;;14.05;3.72;;;14.70;99.90;;;;;;4987181;28;20030;-58
2023/03/30 10:46:15;;;;;;;14.85;3.03;;;14.70;99.90;;;;;;4978421;28;20795;-57
2023/03/30 10:49:07;;;;;;;16.60;3.43;;;14.60;99.90;;;;;;4978214;28;20043;-57
2023/03/30 10:51:40;;;;;;;16.15;3.15;;;14.60;99.90;;;;;;4977602;28;20043;-57
2023/03/30 10:54:49;;;;;;;17.65;3.70;;;14.70;99.90;;;;;;4975859;28;20062;-57
2023/03/30 10:57:19;;;;;;;19.60;3.58;;;14.80;99.90;;;;;;4976810;28;20532;-58
2023/03/30 11:00:17;;;;;;;18.48;3.58;;;14.80;99.90;;;;;;4977906;28;20133;-58
2023/03/30 11:02:52;;;;;;;18.63;4.32;;;14.80;99.90;;;;;;4981539;28;20038;-57
2023/03/30 11:05:23;;;;;;;;;;;14.90;99.90;;;;;;4974314;28;20093;-58
2023/03/30 11:08:21;;;;;;;16.15;4.13;;;14.90;99.90;;;;;;4977523;28;19922;-58
2023/03/30 11:10:48;;;;;;;17.63;3.83;;;14.90;99.90;;;;;;4970640;28;20142;-58
2023/03/30 11:13:26;;;;;;;16.45;4.20;;;14.90;99.90;;;;;;4976041;28;20053;-57
2023/03/30 11:15:55;;;;;;;19.92;3.75;;;14.90;99.90;;;;;;4973415;28;20494;-57
2023/03/30 11:18:29;;;;;;;23.08;4.35;;;14.90;99.90;;;;;;4973213;28;20521;-58
2023/03/30 11:21:11;;;;;;;16.67;4.18;;;14.90;99.90;;;;;;4974137;28;20042;-56
2023/03/30 11:23:56;;;;;;;20.20;4.40;;;15.00;99.90;;;;;;4980648;28;20112;-57
2023/03/30 11:26:34;;;;;;;21.95;4.53;;;15.20;99.90;;;;;;4981313;28;20126;-55
2023/03/30 11:29:15;;;;;;;20.45;4.20;;;15.30;99.90;;;;;;4973945;28;20065;-58
2023/03/30 11:32:10;;;;;;;18.77;4.43;;;15.40;99.90;;;;;;4977152;28;20043;-57
2023/03/30 11:35:00;;;;;;;20.15;4.10;;;15.50;99.90;;;;;;4974907;28;20064;-58
2023/03/30 11:38:01;;;;;;;20.50;4.18;;;15.60;99.90;;;;;;4975995;28;20039;-58
2023/03/30 11:40:45;;;;;;;18.50;3.85;;;15.60;99.90;;;;;;4974043;28;20046;-57
2023/03/30 11:43:22;;;;;;;20.58;4.80;;;15.50;99.90;;;;;;4974881;28;20537;-58
2023/03/30 11:46:20;;;;;;;23.17;4.35;;;15.40;99.90;;;;;;4978033;28;20051;-58
2023/03/30 11:49:07;;;;;;;18.02;4.30;;;15.40;99.90;;;;;;4980249;28;20053;-57
2023/03/30 11:52:03;;;;;;;20.80;4.03;;;15.40;99.90;;;;;;4972971;28;20047;-57
2023/03/30 11:54:57;;;;;;;16.85;4.20;;;15.60;99.90;;;;;;4975191;28;20038;-58
2023/03/30 11:57:48;;;;;;;16.05;4.15;;;15.90;99.90;;;;;;4973468;28;20085;-58
2023/03/30 12:00:46;;;;;;;17.83;3.97;;;16.20;99.90;;;;;;4977098;28;20406;-58
2023/03/30 12:03:34;;;;;;;18.20;4.10;;;16.50;99.90;;;;;;4980922;28;20034;-58
2023/03/30 12:06:19;;;;;;;17.27;4.13;;;16.70;99.90;;;;;;4974122;28;20042;-57
2023/03/30 12:09:01;;;;;;;17.00;3.75;;;16.70;99.90;;;;;;4980467;28;20058;-58
2023/03/30 12:11:47;;;;;;;22.92;3.80;;;16.80;99.90;;;;;;4958573;28;20091;-58
2023/03/30 12:14:46;;;;;;;16.27;3.17;;;16.90;99.90;;;;;;4972802;28;20536;-57
2023/03/30 12:17:53;;;;;;;18.30;4.10;;;17.00;99.90;;;;;;4981064;28;20050;-59
2023/03/30 12:20:38;;;;;;;16.33;3.63;;;16.70;99.90;;;;;;4933640;29;20055;-59
2023/03/30 12:23:18;;;;;;;17.83;3.80;;;16.60;99.90;;;;;;4979786;28;20050;-58
2023/03/30 12:26:02;;;;;;;15.90;3.97;;;16.40;99.90;;;;;;4985488;28;20057;-56
2023/03/30 12:28:43;;;;;;;23.80;4.53;;;16.20;99.90;;;;;;4976180;28;20169;-58
2023/03/30 12:31:09;;;;;;;18.23;4.63;;;16.00;99.90;;;;;;4979699;28;20435;-58
2023/03/30 12:33:42;;;;;;;20.63;4.35;;;15.90;99.90;;;;;;4972299;28;20049;-59
2023/03/30 12:36:39;;;;;;;20.50;4.57;;;16.00;99.90;;;;;;4984032;28;20034;-58
2023/03/30 12:39:24;;;;;;;20.88;4.38;;;16.10;99.90;;;;;;4963652;28;20074;-57
2023/03/30 12:42:04;;;;;;;20.25;5.03;;;16.20;99.90;;;;;;4984788;28;20046;-56
2023/03/30 12:44:37;;;;;;;22.73;4.68;;;16.30;99.90;;;;;;4978218;28;20118;-57
2023/03/30 12:47:26;;;;;;;22.27;4.80;;;16.40;99.90;;;;;;4978065;28;20039;-56
2023/03/30 12:49:52;;;;;;;21.60;4.60;;;16.50;99.90;;;;;;4984080;28;20502;-57
2023/03/30 12:52:22;;;;;;;21.00;4.97;;;16.60;99.90;;;;;;4974419;28;20043;-56
2023/03/30 12:55:12;;;;;;;21.50;4.90;;;16.80;99.90;;;;;;4974415;28;20451;-56
2023/03/30 12:57:59;;;;;;;20.63;4.45;;;17.00;99.90;;;;;;4971670;28;20042;-53
2023/03/30 13:00:46;;;;;;;21.23;4.20;;;17.00;99.90;;;;;;4974845;28;20042;-57
2023/03/30 13:03:35;;;;;;;24.30;5.28;;;16.90;99.90;;;;;;4975394;28;20125;-57
2023/03/30 13:06:03;;;;;;;23.23;5.40;;;16.90;99.90;;;;;;4974742;28;20058;-55
2023/03/30 13:08:37;;;;;;;22.50;4.22;;;17.00;99.90;;;;;;4979649;28;20058;-57